sensor_id;sensor_type;location;lat;lon;timestamp;temperature;humidity
5901;DHT22;2976;49.764;9.796;2022-10-23T00:01:28;9.20;99.90
5901;DHT22;2976;49.764;9.796;2022-10-23T00:03:59;9.20;99.90
5901;DHT22;2976;49.764;9.796;2022-10-23T00:06:27;9.20;99.90
5901;DHT22;2976;49.764;9.796;2022-10-23T00:08:53;9.10;99.90
5901;DHT22;2976;49.764;9.796;2022-10-23T00:11:28;9.10;99.90
5901;DHT22;2976;49.764;9.796;2022-10-23T00:13:56;9.10;99.90
5901;DHT22;2976;49.764;9.796;2022-10-23T00:16:22;9.00;99.90
5901;DHT22;2976;49.764;9.796;2022-10-23T00:18:48;9.00;99.90
5901;DHT22;2976;49.764;9.796;2022-10-23T00:21:14;9.00;99.90
5901;DHT22;2976;49.764;9.796;2022-10-23T00:23:41;8.90;99.90
5901;DHT22;2976;49.764;9.796;2022-10-23T00:26:08;9.10;99.90
5901;DHT22;2976;49.764;9.796;2022-10-23T00:28:36;9.10;99.90
5901;DHT22;2976;49.764;9.796;2022-10-23T00:31:04;9.10;99.90
5901;DHT22;2976;49.764;9.796;2022-10-23T00:33:31;9.00;99.90
5901;DHT22;2976;49.764;9.796;2022-10-23T00:35:56;9.10;99.90
5901;DHT22;2976;49.764;9.796;2022-10-23T00:38:22;9.20;99.90
5901;DHT22;2976;49.764;9.796;2022-10-23T00:40:48;9.20;99.90
5901;DHT22;2976;49.764;9.796;2022-10-23T00:43:22;9.20;99.90
5901;DHT22;2976;49.764;9.796;2022-10-23T00:45:48;9.00;99.90
5901;DHT22;2976;49.764;9.796;2022-10-23T00:48:14;8.90;99.90
5901;DHT22;2976;49.764;9.796;2022-10-23T00:50:40;8.90;99.90
5901;DHT22;2976;49.764;9.796;2022-10-23T00:53:06;8.80;99.90
5901;DHT22;2976;49.764;9.796;2022-10-23T00:55:33;8.70;99.90
5901;DHT22;2976;49.764;9.796;2022-10-23T00:58:00;8.70;99.90
5901;DHT22;2976;49.764;9.796;2022-10-23T01:00:29;8.70;99.90
5901;DHT22;2976;49.764;9.796;2022-10-23T01:02:56;8.70;99.90
5901;DHT22;2976;49.764;9.796;2022-10-23T01:05:28;8.70;99.90
5901;DHT22;2976;49.764;9.796;2022-10-23T01:10:44;8.60;99.90
5901;DHT22;2976;49.764;9.796;2022-10-23T01:16:02;8.60;99.90
5901;DHT22;2976;49.764;9.796;2022-10-23T01:18:38;8.50;99.90
5901;DHT22;2976;49.764;9.796;2022-10-23T01:21:21;8.40;99.90
5901;DHT22;2976;49.764;9.796;2022-10-23T01:26:41;8.20;99.90
5901;DHT22;2976;49.764;9.796;2022-10-23T01:29:40;8.10;99.90
5901;DHT22;2976;49.764;9.796;2022-10-23T01:32:24;8.10;99.90
5901;DHT22;2976;49.764;9.796;2022-10-23T01:35:01;8.10;99.90
5901;DHT22;2976;49.764;9.796;2022-10-23T01:37:44;8.00;99.90
5901;DHT22;2976;49.764;9.796;2022-10-23T01:40:31;8.00;99.90
5901;DHT22;2976;49.764;9.796;2022-10-23T01:43:05;8.10;99.90
5901;DHT22;2976;49.764;9.796;2022-10-23T01:45:39;8.00;99.90
5901;DHT22;2976;49.764;9.796;2022-10-23T01:48:09;8.10;99.90
5901;DHT22;2976;49.764;9.796;2022-10-23T01:50:38;8.10;99.90
5901;DHT22;2976;49.764;9.796;2022-10-23T01:53:04;8.10;99.90
5901;DHT22;2976;49.764;9.796;2022-10-23T01:55:31;8.10;99.90
5901;DHT22;2976;49.764;9.796;2022-10-23T01:57:59;8.10;99.90
5901;DHT22;2976;49.764;9.796;2022-10-23T02:00:26;8.10;99.90
5901;DHT22;2976;49.764;9.796;2022-10-23T02:02:53;8.10;99.90
5901;DHT22;2976;49.764;9.796;2022-10-23T02:05:24;8.00;99.90
5901;DHT22;2976;49.764;9.796;2022-10-23T02:07:50;8.00;99.90
5901;DHT22;2976;49.764;9.796;2022-10-23T02:10:17;8.00;99.90
5901;DHT22;2976;49.764;9.796;2022-10-23T02:13:06;8.10;99.90
5901;DHT22;2976;49.764;9.796;2022-10-23T02:18:33;8.20;99.90
5901;DHT22;2976;49.764;9.796;2022-10-23T02:21:08;8.10;99.90
5901;DHT22;2976;49.764;9.796;2022-10-23T02:26:19;8.00;99.90
5901;DHT22;2976;49.764;9.796;2022-10-23T02:28:56;7.90;99.90
5901;DHT22;2976;49.764;9.796;2022-10-23T02:31:23;7.90;99.90
5901;DHT22;2976;49.764;9.796;2022-10-23T02:33:49;7.90;99.90
5901;DHT22;2976;49.764;9.796;2022-10-23T02:36:16;7.90;99.90
5901;DHT22;2976;49.764;9.796;2022-10-23T02:38:43;7.90;99.90
5901;DHT22;2976;49.764;9.796;2022-10-23T02:46:48;7.90;99.90
5901;DHT22;2976;49.764;9.796;2022-10-23T02:49:28;7.90;99.90
5901;DHT22;2976;49.764;9.796;2022-10-23T02:54:44;7.80;99.90
5901;DHT22;2976;49.764;9.796;2022-10-23T02:57:34;7.70;99.90
5901;DHT22;2976;49.764;9.796;2022-10-23T03:00:05;7.60;99.90
5901;DHT22;2976;49.764;9.796;2022-10-23T03:02:39;7.60;99.90
5901;DHT22;2976;49.764;9.796;2022-10-23T03:05:10;7.60;99.90
5901;DHT22;2976;49.764;9.796;2022-10-23T03:07:38;7.60;99.90
5901;DHT22;2976;49.764;9.796;2022-10-23T03:10:04;7.60;99.90
5901;DHT22;2976;49.764;9.796;2022-10-23T03:12:30;7.60;99.90
5901;DHT22;2976;49.764;9.796;2022-10-23T03:14:56;7.50;99.90
5901;DHT22;2976;49.764;9.796;2022-10-23T03:17:21;7.40;99.90
5901;DHT22;2976;49.764;9.796;2022-10-23T03:19:47;7.40;99.90
5901;DHT22;2976;49.764;9.796;2022-10-23T03:22:13;7.30;99.90
5901;DHT22;2976;49.764;9.796;2022-10-23T03:24:38;7.40;99.90
5901;DHT22;2976;49.764;9.796;2022-10-23T03:27:04;7.50;99.90
5901;DHT22;2976;49.764;9.796;2022-10-23T03:29:29;8.00;99.90
5901;DHT22;2976;49.764;9.796;2022-10-23T03:31:55;8.30;99.90
5901;DHT22;2976;49.764;9.796;2022-10-23T03:34:20;8.30;99.90
5901;DHT22;2976;49.764;9.796;2022-10-23T03:36:46;8.20;99.90
5901;DHT22;2976;49.764;9.796;2022-10-23T03:39:12;8.00;99.90
5901;DHT22;2976;49.764;9.796;2022-10-23T03:41:37;7.90;99.90
5901;DHT22;2976;49.764;9.796;2022-10-23T03:44:03;7.80;99.90
5901;DHT22;2976;49.764;9.796;2022-10-23T03:46:28;7.70;99.90
5901;DHT22;2976;49.764;9.796;2022-10-23T03:48:54;7.70;99.90
5901;DHT22;2976;49.764;9.796;2022-10-23T03:51:22;7.70;99.90
5901;DHT22;2976;49.764;9.796;2022-10-23T03:53:48;7.90;99.90
5901;DHT22;2976;49.764;9.796;2022-10-23T03:56:14;8.00;99.90
5901;DHT22;2976;49.764;9.796;2022-10-23T03:58:39;8.00;99.90
5901;DHT22;2976;49.764;9.796;2022-10-23T04:01:05;8.10;99.90
5901;DHT22;2976;49.764;9.796;2022-10-23T04:03:30;8.00;99.90
5901;DHT22;2976;49.764;9.796;2022-10-23T04:05:56;7.90;99.90
5901;DHT22;2976;49.764;9.796;2022-10-23T04:08:22;7.70;99.90
5901;DHT22;2976;49.764;9.796;2022-10-23T04:10:47;7.60;99.90
5901;DHT22;2976;49.764;9.796;2022-10-23T04:13:13;7.40;99.90
5901;DHT22;2976;49.764;9.796;2022-10-23T04:15:38;7.30;99.90
5901;DHT22;2976;49.764;9.796;2022-10-23T04:18:04;7.30;99.90
5901;DHT22;2976;49.764;9.796;2022-10-23T04:20:30;7.30;99.90
5901;DHT22;2976;49.764;9.796;2022-10-23T04:22:55;7.30;99.90
5901;DHT22;2976;49.764;9.796;2022-10-23T04:25:21;7.30;99.90
5901;DHT22;2976;49.764;9.796;2022-10-23T04:27:47;7.20;99.90
5901;DHT22;2976;49.764;9.796;2022-10-23T04:30:13;7.20;99.90
5901;DHT22;2976;49.764;9.796;2022-10-23T04:32:39;7.10;99.90
5901;DHT22;2976;49.764;9.796;2022-10-23T04:35:05;7.10;99.90
5901;DHT22;2976;49.764;9.796;2022-10-23T04:37:31;7.10;99.90
5901;DHT22;2976;49.764;9.796;2022-10-23T04:39:56;7.10;99.90
5901;DHT22;2976;49.764;9.796;2022-10-23T04:42:22;7.10;99.90
5901;DHT22;2976;49.764;9.796;2022-10-23T04:44:47;7.10;99.90
5901;DHT22;2976;49.764;9.796;2022-10-23T04:47:13;7.10;99.90
5901;DHT22;2976;49.764;9.796;2022-10-23T04:49:38;7.10;99.90
5901;DHT22;2976;49.764;9.796;2022-10-23T04:52:04;7.00;99.90
5901;DHT22;2976;49.764;9.796;2022-10-23T04:54:35;7.10;99.90
5901;DHT22;2976;49.764;9.796;2022-10-23T04:57:01;7.10;99.90
5901;DHT22;2976;49.764;9.796;2022-10-23T04:59:26;7.10;99.90
5901;DHT22;2976;49.764;9.796;2022-10-23T05:01:52;7.10;99.90
5901;DHT22;2976;49.764;9.796;2022-10-23T05:04:17;7.00;99.90
5901;DHT22;2976;49.764;9.796;2022-10-23T05:06:43;7.00;99.90
5901;DHT22;2976;49.764;9.796;2022-10-23T05:09:08;7.00;99.90
5901;DHT22;2976;49.764;9.796;2022-10-23T05:11:34;7.00;99.90
5901;DHT22;2976;49.764;9.796;2022-10-23T05:13:59;7.10;99.90
5901;DHT22;2976;49.764;9.796;2022-10-23T05:19:16;7.30;99.90
5901;DHT22;2976;49.764;9.796;2022-10-23T05:21:42;7.30;99.90
5901;DHT22;2976;49.764;9.796;2022-10-23T05:24:09;7.30;99.90
5901;DHT22;2976;49.764;9.796;2022-10-23T05:26:35;7.20;99.90
5901;DHT22;2976;49.764;9.796;2022-10-23T05:29:00;7.10;99.90
5901;DHT22;2976;49.764;9.796;2022-10-23T05:31:26;7.10;99.90
5901;DHT22;2976;49.764;9.796;2022-10-23T05:33:53;7.00;99.90
5901;DHT22;2976;49.764;9.796;2022-10-23T05:36:19;7.00;99.90
5901;DHT22;2976;49.764;9.796;2022-10-23T05:38:45;7.00;99.90
5901;DHT22;2976;49.764;9.796;2022-10-23T05:41:11;7.00;99.90
5901;DHT22;2976;49.764;9.796;2022-10-23T05:43:37;7.00;99.90
5901;DHT22;2976;49.764;9.796;2022-10-23T05:46:05;7.00;99.90
5901;DHT22;2976;49.764;9.796;2022-10-23T05:48:34;7.10;99.90
5901;DHT22;2976;49.764;9.796;2022-10-23T05:51:07;7.30;99.90
5901;DHT22;2976;49.764;9.796;2022-10-23T05:53:33;7.30;99.90
5901;DHT22;2976;49.764;9.796;2022-10-23T05:56:04;7.30;99.90
5901;DHT22;2976;49.764;9.796;2022-10-23T05:58:30;7.30;99.90
5901;DHT22;2976;49.764;9.796;2022-10-23T06:00:55;7.20;99.90
5901;DHT22;2976;49.764;9.796;2022-10-23T06:03:21;7.30;99.90
5901;DHT22;2976;49.764;9.796;2022-10-23T06:05:50;7.20;99.90
5901;DHT22;2976;49.764;9.796;2022-10-23T06:08:16;7.20;99.90
5901;DHT22;2976;49.764;9.796;2022-10-23T06:10:42;7.20;99.90
5901;DHT22;2976;49.764;9.796;2022-10-23T06:13:07;7.20;99.90
5901;DHT22;2976;49.764;9.796;2022-10-23T06:15:33;7.20;99.90
5901;DHT22;2976;49.764;9.796;2022-10-23T06:18:02;7.30;99.90
5901;DHT22;2976;49.764;9.796;2022-10-23T06:20:28;7.40;99.90
5901;DHT22;2976;49.764;9.796;2022-10-23T06:22:54;7.60;99.90
5901;DHT22;2976;49.764;9.796;2022-10-23T06:25:20;7.80;99.90
5901;DHT22;2976;49.764;9.796;2022-10-23T06:27:45;8.00;99.90
5901;DHT22;2976;49.764;9.796;2022-10-23T06:30:11;8.10;99.90
5901;DHT22;2976;49.764;9.796;2022-10-23T06:32:37;8.30;99.90
5901;DHT22;2976;49.764;9.796;2022-10-23T06:35:03;8.40;99.90
5901;DHT22;2976;49.764;9.796;2022-10-23T06:37:29;8.40;99.90
5901;DHT22;2976;49.764;9.796;2022-10-23T06:39:54;8.50;99.90
5901;DHT22;2976;49.764;9.796;2022-10-23T06:42:20;8.50;99.90
5901;DHT22;2976;49.764;9.796;2022-10-23T06:44:45;8.50;99.90
5901;DHT22;2976;49.764;9.796;2022-10-23T06:47:11;8.60;99.90
5901;DHT22;2976;49.764;9.796;2022-10-23T06:49:38;8.60;99.90
5901;DHT22;2976;49.764;9.796;2022-10-23T06:52:04;8.70;99.90
5901;DHT22;2976;49.764;9.796;2022-10-23T06:54:29;8.80;99.90
5901;DHT22;2976;49.764;9.796;2022-10-23T06:56:55;8.90;99.90
5901;DHT22;2976;49.764;9.796;2022-10-23T06:59:20;9.00;99.90
5901;DHT22;2976;49.764;9.796;2022-10-23T07:01:46;9.10;99.90
5901;DHT22;2976;49.764;9.796;2022-10-23T07:04:12;9.00;99.90
5901;DHT22;2976;49.764;9.796;2022-10-23T07:06:41;8.80;99.90
5901;DHT22;2976;49.764;9.796;2022-10-23T07:09:07;8.70;99.90
5901;DHT22;2976;49.764;9.796;2022-10-23T07:11:32;8.60;99.90
5901;DHT22;2976;49.764;9.796;2022-10-23T07:13:58;8.60;99.90
5901;DHT22;2976;49.764;9.796;2022-10-23T07:16:23;8.80;99.90
5901;DHT22;2976;49.764;9.796;2022-10-23T07:18:55;8.90;99.90
5901;DHT22;2976;49.764;9.796;2022-10-23T07:21:31;8.90;99.90
5901;DHT22;2976;49.764;9.796;2022-10-23T07:23:59;9.00;99.90
5901;DHT22;2976;49.764;9.796;2022-10-23T07:26:25;9.20;99.90
5901;DHT22;2976;49.764;9.796;2022-10-23T07:28:51;9.60;99.90
5901;DHT22;2976;49.764;9.796;2022-10-23T07:31:20;9.80;99.90
5901;DHT22;2976;49.764;9.796;2022-10-23T07:33:47;9.90;99.90
5901;DHT22;2976;49.764;9.796;2022-10-23T07:36:12;10.00;99.90
5901;DHT22;2976;49.764;9.796;2022-10-23T07:38:38;10.10;99.90
5901;DHT22;2976;49.764;9.796;2022-10-23T07:41:04;9.80;99.90
5901;DHT22;2976;49.764;9.796;2022-10-23T07:43:30;9.80;99.90
5901;DHT22;2976;49.764;9.796;2022-10-23T07:45:55;10.00;99.90
5901;DHT22;2976;49.764;9.796;2022-10-23T07:48:21;10.20;99.90
5901;DHT22;2976;49.764;9.796;2022-10-23T07:50:48;10.30;99.90
5901;DHT22;2976;49.764;9.796;2022-10-23T07:53:22;10.30;99.90
5901;DHT22;2976;49.764;9.796;2022-10-23T07:55:56;10.20;99.90
5901;DHT22;2976;49.764;9.796;2022-10-23T07:58:23;10.50;99.90
5901;DHT22;2976;49.764;9.796;2022-10-23T08:00:55;11.10;99.90
5901;DHT22;2976;49.764;9.796;2022-10-23T08:03:30;11.60;99.90
5901;DHT22;2976;49.764;9.796;2022-10-23T08:05:57;12.00;99.90
5901;DHT22;2976;49.764;9.796;2022-10-23T08:08:24;11.70;99.90
5901;DHT22;2976;49.764;9.796;2022-10-23T08:10:51;11.50;99.90
5901;DHT22;2976;49.764;9.796;2022-10-23T08:13:17;11.30;99.90
5901;DHT22;2976;49.764;9.796;2022-10-23T08:15:45;11.40;99.90
5901;DHT22;2976;49.764;9.796;2022-10-23T08:18:11;11.40;99.90
5901;DHT22;2976;49.764;9.796;2022-10-23T08:20:38;11.40;99.90
5901;DHT22;2976;49.764;9.796;2022-10-23T08:23:04;11.50;99.90
5901;DHT22;2976;49.764;9.796;2022-10-23T08:25:29;11.70;99.90
5901;DHT22;2976;49.764;9.796;2022-10-23T08:27:55;11.80;99.90
5901;DHT22;2976;49.764;9.796;2022-10-23T08:30:21;12.20;99.90
5901;DHT22;2976;49.764;9.796;2022-10-23T08:32:46;12.50;99.90
5901;DHT22;2976;49.764;9.796;2022-10-23T08:35:12;12.40;99.90
5901;DHT22;2976;49.764;9.796;2022-10-23T08:37:37;12.60;99.90
5901;DHT22;2976;49.764;9.796;2022-10-23T08:40:03;12.70;99.90
5901;DHT22;2976;49.764;9.796;2022-10-23T08:42:29;12.90;99.90
5901;DHT22;2976;49.764;9.796;2022-10-23T08:47:55;13.20;99.90
5901;DHT22;2976;49.764;9.796;2022-10-23T08:50:35;13.30;99.90
5901;DHT22;2976;49.764;9.796;2022-10-23T08:53:05;13.40;99.90
5901;DHT22;2976;49.764;9.796;2022-10-23T08:55:35;13.40;99.90
5901;DHT22;2976;49.764;9.796;2022-10-23T08:58:06;13.50;99.90
5901;DHT22;2976;49.764;9.796;2022-10-23T09:00:35;13.60;99.90
5901;DHT22;2976;49.764;9.796;2022-10-23T09:03:03;13.70;99.90
5901;DHT22;2976;49.764;9.796;2022-10-23T09:11:08;14.00;99.90
5901;DHT22;2976;49.764;9.796;2022-10-23T09:18:53;14.50;99.90
5901;DHT22;2976;49.764;9.796;2022-10-23T09:21:24;14.60;99.90
5901;DHT22;2976;49.764;9.796;2022-10-23T09:23:51;14.80;99.90
5901;DHT22;2976;49.764;9.796;2022-10-23T09:26:17;14.90;99.90
5901;DHT22;2976;49.764;9.796;2022-10-23T09:29:00;15.00;99.90
5901;DHT22;2976;49.764;9.796;2022-10-23T09:31:26;15.10;99.90
5901;DHT22;2976;49.764;9.796;2022-10-23T09:33:57;15.20;99.90
5901;DHT22;2976;49.764;9.796;2022-10-23T09:36:24;15.40;99.90
5901;DHT22;2976;49.764;9.796;2022-10-23T09:38:53;15.70;99.90
5901;DHT22;2976;49.764;9.796;2022-10-23T09:41:28;16.20;99.90
5901;DHT22;2976;49.764;9.796;2022-10-23T09:46:54;16.10;99.90
5901;DHT22;2976;49.764;9.796;2022-10-23T09:49:25;16.40;99.90
5901;DHT22;2976;49.764;9.796;2022-10-23T09:52:18;16.30;99.90
5901;DHT22;2976;49.764;9.796;2022-10-23T09:57:19;16.40;99.90
5901;DHT22;2976;49.764;9.796;2022-10-23T10:00:23;16.50;99.90
5901;DHT22;2976;49.764;9.796;2022-10-23T10:02:53;16.80;99.90
5901;DHT22;2976;49.764;9.796;2022-10-23T10:10:36;17.30;99.90
5901;DHT22;2976;49.764;9.796;2022-10-23T10:15:58;18.10;99.90
5901;DHT22;2976;49.764;9.796;2022-10-23T10:23:45;19.50;62.20
5901;DHT22;2976;49.764;9.796;2022-10-23T10:34:28;20.10;16.30
5901;DHT22;2976;49.764;9.796;2022-10-23T10:39:36;20.40;1.00
5901;DHT22;2976;49.764;9.796;2022-10-23T10:42:15;20.60;1.00
5901;DHT22;2976;49.764;9.796;2022-10-23T10:50:33;20.90;1.00
5901;DHT22;2976;49.764;9.796;2022-10-23T10:56:14;20.50;1.00
5901;DHT22;2976;49.764;9.796;2022-10-23T10:59:01;20.30;1.00
5901;DHT22;2976;49.764;9.796;2022-10-23T11:01:44;20.20;1.00
5901;DHT22;2976;49.764;9.796;2022-10-23T11:04:21;20.00;1.00
5901;DHT22;2976;49.764;9.796;2022-10-23T11:06:53;19.70;5.50
5901;DHT22;2976;49.764;9.796;2022-10-23T11:09:27;19.60;25.90
5901;DHT22;2976;49.764;9.796;2022-10-23T11:11:54;19.50;24.20
5901;DHT22;2976;49.764;9.796;2022-10-23T11:14:24;19.40;38.00
5901;DHT22;2976;49.764;9.796;2022-10-23T11:17:10;19.30;35.00
5901;DHT22;2976;49.764;9.796;2022-10-23T11:20:02;19.10;53.20
5901;DHT22;2976;49.764;9.796;2022-10-23T11:25:34;18.70;72.70
5901;DHT22;2976;49.764;9.796;2022-10-23T11:31:10;18.20;99.40
5901;DHT22;2976;49.764;9.796;2022-10-23T11:33:55;18.30;99.90
5901;DHT22;2976;49.764;9.796;2022-10-23T11:36:50;18.30;99.90
5901;DHT22;2976;49.764;9.796;2022-10-23T11:39:20;18.40;96.90
5901;DHT22;2976;49.764;9.796;2022-10-23T11:41:54;18.30;99.90
5901;DHT22;2976;49.764;9.796;2022-10-23T11:47:24;18.40;99.90
5901;DHT22;2976;49.764;9.796;2022-10-23T11:49:50;18.30;99.90
5901;DHT22;2976;49.764;9.796;2022-10-23T11:52:23;18.40;99.90
5901;DHT22;2976;49.764;9.796;2022-10-23T11:55:14;18.50;99.90
5901;DHT22;2976;49.764;9.796;2022-10-23T11:57:40;18.40;98.60
5901;DHT22;2976;49.764;9.796;2022-10-23T12:00:20;18.40;98.50
5901;DHT22;2976;49.764;9.796;2022-10-23T12:02:51;18.50;99.90
5901;DHT22;2976;49.764;9.796;2022-10-23T12:05:35;18.70;99.90
5901;DHT22;2976;49.764;9.796;2022-10-23T12:08:07;18.80;96.00
5901;DHT22;2976;49.764;9.796;2022-10-23T12:10:45;19.00;99.30
5901;DHT22;2976;49.764;9.796;2022-10-23T12:15:54;19.60;73.70
5901;DHT22;2976;49.764;9.796;2022-10-23T12:18:20;19.80;48.70
5901;DHT22;2976;49.764;9.796;2022-10-23T12:20:55;20.00;48.90
5901;DHT22;2976;49.764;9.796;2022-10-23T12:23:56;20.10;45.00
5901;DHT22;2976;49.764;9.796;2022-10-23T12:26:51;20.10;46.10
5901;DHT22;2976;49.764;9.796;2022-10-23T12:40:07;19.40;33.80
5901;DHT22;2976;49.764;9.796;2022-10-23T12:42:34;19.40;33.10
5901;DHT22;2976;49.764;9.796;2022-10-23T12:45:25;19.40;37.30
5901;DHT22;2976;49.764;9.796;2022-10-23T12:47:52;19.40;47.70
5901;DHT22;2976;49.764;9.796;2022-10-23T12:50:30;19.30;47.60
5901;DHT22;2976;49.764;9.796;2022-10-23T12:53:01;19.30;54.40
5901;DHT22;2976;49.764;9.796;2022-10-23T12:55:30;19.20;36.30
5901;DHT22;2976;49.764;9.796;2022-10-23T12:57:56;19.20;47.20
5901;DHT22;2976;49.764;9.796;2022-10-23T13:00:23;19.30;45.80
5901;DHT22;2976;49.764;9.796;2022-10-23T13:03:00;19.30;42.70
5901;DHT22;2976;49.764;9.796;2022-10-23T13:05:27;19.40;45.10
5901;DHT22;2976;49.764;9.796;2022-10-23T13:07:54;19.20;48.40
5901;DHT22;2976;49.764;9.796;2022-10-23T13:10:21;19.10;42.30
5901;DHT22;2976;49.764;9.796;2022-10-23T13:12:57;19.00;49.20
5901;DHT22;2976;49.764;9.796;2022-10-23T13:15:24;18.90;62.00
5901;DHT22;2976;49.764;9.796;2022-10-23T13:18:01;18.90;62.30
5901;DHT22;2976;49.764;9.796;2022-10-23T13:20:33;18.80;66.60
5901;DHT22;2976;49.764;9.796;2022-10-23T13:23:19;18.90;69.00
5901;DHT22;2976;49.764;9.796;2022-10-23T13:25:57;19.00;71.60
5901;DHT22;2976;49.764;9.796;2022-10-23T13:28:26;19.00;79.50
5901;DHT22;2976;49.764;9.796;2022-10-23T13:33:38;19.30;61.20
5901;DHT22;2976;49.764;9.796;2022-10-23T13:38:44;19.40;69.90
5901;DHT22;2976;49.764;9.796;2022-10-23T13:41:16;19.40;68.00
5901;DHT22;2976;49.764;9.796;2022-10-23T13:43:42;19.40;71.10
5901;DHT22;2976;49.764;9.796;2022-10-23T13:46:19;19.50;74.80
5901;DHT22;2976;49.764;9.796;2022-10-23T13:48:46;19.60;76.10
5901;DHT22;2976;49.764;9.796;2022-10-23T13:51:15;19.80;86.70
5901;DHT22;2976;49.764;9.796;2022-10-23T13:53:41;19.80;70.00
5901;DHT22;2976;49.764;9.796;2022-10-23T13:56:09;19.90;46.70
5901;DHT22;2976;49.764;9.796;2022-10-23T13:58:36;19.80;17.10
5901;DHT22;2976;49.764;9.796;2022-10-23T14:01:01;19.70;17.30
5901;DHT22;2976;49.764;9.796;2022-10-23T14:03:27;19.70;12.90
5901;DHT22;2976;49.764;9.796;2022-10-23T14:05:52;19.60;26.00
5901;DHT22;2976;49.764;9.796;2022-10-23T14:08:18;19.70;21.30
5901;DHT22;2976;49.764;9.796;2022-10-23T14:10:44;19.70;15.00
5901;DHT22;2976;49.764;9.796;2022-10-23T14:13:10;19.60;8.20
5901;DHT22;2976;49.764;9.796;2022-10-23T14:15:36;19.60;19.10
5901;DHT22;2976;49.764;9.796;2022-10-23T14:18:01;19.60;22.80
5901;DHT22;2976;49.764;9.796;2022-10-23T14:20:27;19.60;27.30
5901;DHT22;2976;49.764;9.796;2022-10-23T14:22:53;19.40;21.40
5901;DHT22;2976;49.764;9.796;2022-10-23T14:25:18;19.30;28.80
5901;DHT22;2976;49.764;9.796;2022-10-23T14:27:44;19.20;30.80
5901;DHT22;2976;49.764;9.796;2022-10-23T14:30:10;19.10;33.50
5901;DHT22;2976;49.764;9.796;2022-10-23T14:32:36;19.00;39.70
5901;DHT22;2976;49.764;9.796;2022-10-23T14:35:02;19.00;48.30
5901;DHT22;2976;49.764;9.796;2022-10-23T14:37:32;18.90;47.30
5901;DHT22;2976;49.764;9.796;2022-10-23T14:39:58;18.90;52.20
5901;DHT22;2976;49.764;9.796;2022-10-23T14:42:24;18.90;56.70
5901;DHT22;2976;49.764;9.796;2022-10-23T14:44:49;18.90;64.50
5901;DHT22;2976;49.764;9.796;2022-10-23T14:47:16;18.90;69.50
5901;DHT22;2976;49.764;9.796;2022-10-23T14:49:47;18.90;71.00
5901;DHT22;2976;49.764;9.796;2022-10-23T14:52:13;18.80;67.70
5901;DHT22;2976;49.764;9.796;2022-10-23T14:54:39;18.90;72.40
5901;DHT22;2976;49.764;9.796;2022-10-23T14:57:05;18.80;72.50
5901;DHT22;2976;49.764;9.796;2022-10-23T14:59:30;18.80;80.80
5901;DHT22;2976;49.764;9.796;2022-10-23T15:01:56;18.80;83.70
5901;DHT22;2976;49.764;9.796;2022-10-23T15:04:21;18.70;91.90
5901;DHT22;2976;49.764;9.796;2022-10-23T15:06:50;18.70;92.80
5901;DHT22;2976;49.764;9.796;2022-10-23T15:09:16;18.60;93.00
5901;DHT22;2976;49.764;9.796;2022-10-23T15:11:44;18.60;95.60
5901;DHT22;2976;49.764;9.796;2022-10-23T15:14:10;18.60;96.80
5901;DHT22;2976;49.764;9.796;2022-10-23T15:16:35;18.50;98.00
5901;DHT22;2976;49.764;9.796;2022-10-23T15:19:06;18.50;99.10
5901;DHT22;2976;49.764;9.796;2022-10-23T15:21:32;18.40;99.90
5901;DHT22;2976;49.764;9.796;2022-10-23T15:23:59;18.30;99.90
5901;DHT22;2976;49.764;9.796;2022-10-23T15:26:25;18.20;99.90
5901;DHT22;2976;49.764;9.796;2022-10-23T15:28:56;18.10;99.90
5901;DHT22;2976;49.764;9.796;2022-10-23T15:31:51;18.00;99.90
5901;DHT22;2976;49.764;9.796;2022-10-23T15:34:27;17.90;99.90
5901;DHT22;2976;49.764;9.796;2022-10-23T15:36:54;17.80;99.90
5901;DHT22;2976;49.764;9.796;2022-10-23T15:39:22;17.80;99.90
5901;DHT22;2976;49.764;9.796;2022-10-23T15:41:54;17.70;99.90
5901;DHT22;2976;49.764;9.796;2022-10-23T15:44:21;17.70;99.90
5901;DHT22;2976;49.764;9.796;2022-10-23T15:46:48;17.60;99.90
5901;DHT22;2976;49.764;9.796;2022-10-23T15:49:13;17.60;99.90
5901;DHT22;2976;49.764;9.796;2022-10-23T15:51:40;17.60;99.90
5901;DHT22;2976;49.764;9.796;2022-10-23T15:54:08;17.50;99.90
5901;DHT22;2976;49.764;9.796;2022-10-23T15:56:35;17.50;99.90
5901;DHT22;2976;49.764;9.796;2022-10-23T15:59:01;17.40;99.90
5901;DHT22;2976;49.764;9.796;2022-10-23T16:01:27;17.40;99.90
5901;DHT22;2976;49.764;9.796;2022-10-23T16:03:52;17.40;99.90
5901;DHT22;2976;49.764;9.796;2022-10-23T16:06:19;17.30;99.90
5901;DHT22;2976;49.764;9.796;2022-10-23T16:08:45;17.30;99.90
5901;DHT22;2976;49.764;9.796;2022-10-23T16:11:22;17.30;99.90
5901;DHT22;2976;49.764;9.796;2022-10-23T16:13:48;17.20;99.90
5901;DHT22;2976;49.764;9.796;2022-10-23T16:16:15;17.20;99.90
5901;DHT22;2976;49.764;9.796;2022-10-23T16:18:41;17.20;99.90
5901;DHT22;2976;49.764;9.796;2022-10-23T16:21:24;17.10;99.90
5901;DHT22;2976;49.764;9.796;2022-10-23T16:23:51;17.10;99.90
5901;DHT22;2976;49.764;9.796;2022-10-23T16:26:18;17.00;99.90
5901;DHT22;2976;49.764;9.796;2022-10-23T16:28:44;17.00;99.90
5901;DHT22;2976;49.764;9.796;2022-10-23T16:31:11;16.90;99.90
5901;DHT22;2976;49.764;9.796;2022-10-23T16:33:37;16.90;99.90
5901;DHT22;2976;49.764;9.796;2022-10-23T16:36:08;16.80;99.90
5901;DHT22;2976;49.764;9.796;2022-10-23T16:38:34;16.80;99.90
5901;DHT22;2976;49.764;9.796;2022-10-23T16:41:00;16.70;99.90
5901;DHT22;2976;49.764;9.796;2022-10-23T16:43:26;16.70;99.90
5901;DHT22;2976;49.764;9.796;2022-10-23T16:46:06;16.70;99.90
5901;DHT22;2976;49.764;9.796;2022-10-23T16:48:33;16.70;99.90
5901;DHT22;2976;49.764;9.796;2022-10-23T16:50:59;16.60;99.90
5901;DHT22;2976;49.764;9.796;2022-10-23T16:53:30;16.60;99.90
5901;DHT22;2976;49.764;9.796;2022-10-23T16:55:56;16.60;99.90
5901;DHT22;2976;49.764;9.796;2022-10-23T16:58:23;16.50;99.90
5901;DHT22;2976;49.764;9.796;2022-10-23T17:01:06;16.40;99.90
5901;DHT22;2976;49.764;9.796;2022-10-23T17:03:36;16.40;99.90
5901;DHT22;2976;49.764;9.796;2022-10-23T17:06:04;16.30;99.90
5901;DHT22;2976;49.764;9.796;2022-10-23T17:08:30;16.30;99.90
5901;DHT22;2976;49.764;9.796;2022-10-23T17:13:37;16.30;99.90
5901;DHT22;2976;49.764;9.796;2022-10-23T17:16:06;16.30;99.90
5901;DHT22;2976;49.764;9.796;2022-10-23T17:18:33;16.30;99.90
5901;DHT22;2976;49.764;9.796;2022-10-23T17:20:59;16.30;99.90
5901;DHT22;2976;49.764;9.796;2022-10-23T17:23:28;16.30;99.90
5901;DHT22;2976;49.764;9.796;2022-10-23T17:25:54;16.30;99.90
5901;DHT22;2976;49.764;9.796;2022-10-23T17:28:20;16.30;99.90
5901;DHT22;2976;49.764;9.796;2022-10-23T17:30:45;16.30;99.90
5901;DHT22;2976;49.764;9.796;2022-10-23T17:33:11;16.30;99.90
5901;DHT22;2976;49.764;9.796;2022-10-23T17:35:36;16.30;99.90
5901;DHT22;2976;49.764;9.796;2022-10-23T17:38:04;16.30;99.90
5901;DHT22;2976;49.764;9.796;2022-10-23T17:40:29;16.20;99.90
5901;DHT22;2976;49.764;9.796;2022-10-23T17:42:57;16.20;99.90
5901;DHT22;2976;49.764;9.796;2022-10-23T17:45:23;16.10;99.90
5901;DHT22;2976;49.764;9.796;2022-10-23T17:47:48;16.10;99.90
5901;DHT22;2976;49.764;9.796;2022-10-23T17:50:14;16.10;99.90
5901;DHT22;2976;49.764;9.796;2022-10-23T17:52:40;16.00;99.90
5901;DHT22;2976;49.764;9.796;2022-10-23T17:55:07;16.00;99.90
5901;DHT22;2976;49.764;9.796;2022-10-23T17:57:32;16.00;99.90
5901;DHT22;2976;49.764;9.796;2022-10-23T17:59:58;16.00;99.90
5901;DHT22;2976;49.764;9.796;2022-10-23T18:02:24;15.90;99.90
5901;DHT22;2976;49.764;9.796;2022-10-23T18:04:50;16.00;99.90
5901;DHT22;2976;49.764;9.796;2022-10-23T18:07:16;16.00;99.90
5901;DHT22;2976;49.764;9.796;2022-10-23T18:09:41;16.00;99.90